Time;durP1;ratioP1;P1;durP2;ratioP2;P2;SDS_P1;SDS_P2;PMS_P1;PMS_P2;Temp;Humidity;BMP_temperature;BMP_pressure;BME280_temperature;BME280_humidity;BME280_pressure;Samples;Min_cycle;Max_cycle;Signal;HPM_P1;HPM_P2
2022/06/25 00:01:17;;;;;;;10.93;6.22;;;18.80;99.90;;;;;;5020753;28;25171;-74
2022/06/25 00:03:43;;;;;;;12.57;6.55;;;18.80;99.90;;;;;;4998181;28;25065;-73
2022/06/25 00:06:10;;;;;;;9.07;6.28;;;18.70;99.90;;;;;;5003527;28;25058;-73
2022/06/25 00:08:37;;;;;;;9.18;6.70;;;18.70;99.90;;;;;;5003312;28;25058;-73
2022/06/25 00:11:03;;;;;;;10.15;6.03;;;18.70;99.90;;;;;;5004490;28;25116;-73
2022/06/25 00:13:29;;;;;;;10.55;6.10;;;18.70;99.90;;;;;;5013946;28;25099;-72
2022/06/25 00:15:55;;;;;;;11.45;6.53;;;18.70;99.90;;;;;;5006996;28;25199;-71
2022/06/25 00:18:21;;;;;;;9.55;6.00;;;18.60;99.90;;;;;;5006856;28;25063;-74
2022/06/25 00:20:46;;;;;;;9.93;6.20;;;18.70;99.90;;;;;;5018688;28;25057;-77
2022/06/25 00:23:12;;;;;;;10.20;5.78;;;18.60;99.90;;;;;;5008933;28;25055;-72
2022/06/25 00:25:38;;;;;;;8.55;6.07;;;18.60;99.90;;;;;;5004629;28;25086;-72
2022/06/25 00:28:04;;;;;;;8.05;5.68;;;18.60;99.90;;;;;;5017110;28;25062;-72
2022/06/25 00:30:30;;;;;;;10.15;7.57;;;18.60;99.90;;;;;;5005879;28;25160;-72
2022/06/25 00:32:56;;;;;;;8.02;5.32;;;18.50;99.90;;;;;;5000775;28;25110;-72
2022/06/25 00:35:23;;;;;;;6.22;5.15;;;18.50;99.90;;;;;;5010832;28;25064;-72
2022/06/25 00:37:48;;;;;;;8.73;5.95;;;18.50;99.90;;;;;;5007829;28;25055;-76
2022/06/25 00:40:14;;;;;;;9.38;6.03;;;18.50;99.90;;;;;;5008762;28;25066;-74
2022/06/25 00:42:47;;;;;;;6.78;5.28;;;18.40;99.90;;;;;;5006937;28;25047;-74
2022/06/25 00:45:13;;;;;;;5.53;5.03;;;18.40;99.90;;;;;;4997630;28;25124;-72
2022/06/25 00:47:39;;;;;;;10.68;6.18;;;18.40;99.90;;;;;;5003869;28;25057;-74
2022/06/25 00:50:05;;;;;;;9.10;5.18;;;18.40;99.90;;;;;;5011648;28;25063;-74
2022/06/25 00:52:38;;;;;;;8.82;5.65;;;18.40;99.90;;;;;;5024590;28;25141;-72
2022/06/25 00:55:10;;;;;;;7.75;6.10;;;18.40;99.90;;;;;;4998288;28;25070;-73
2022/06/25 00:57:42;;;;;;;5.82;5.22;;;18.50;99.90;;;;;;5018491;28;25083;-71
2022/06/25 01:00:17;;;;;;;7.63;5.10;;;18.50;99.90;;;;;;5002525;28;25117;-72
2022/06/25 01:02:44;;;;;;;7.68;5.18;;;18.50;99.90;;;;;;5003909;28;25103;-73
2022/06/25 01:05:12;;;;;;;8.27;6.00;;;18.40;99.90;;;;;;5010781;28;25067;-71
2022/06/25 01:07:39;;;;;;;8.00;5.13;;;18.50;99.90;;;;;;5000974;28;25042;-72
2022/06/25 01:10:06;;;;;;;13.35;5.72;;;18.40;99.90;;;;;;5002878;28;25061;-73
2022/06/25 01:12:33;;;;;;;6.10;5.25;;;18.40;99.90;;;;;;5002353;28;25115;-74
2022/06/25 01:15:08;;;;;;;9.35;5.47;;;18.40;99.90;;;;;;5005845;28;25062;-74
2022/06/25 01:17:54;;;;;;;8.10;5.45;;;18.50;99.90;;;;;;4999757;28;25163;-74
2022/06/25 01:20:23;;;;;;;6.70;4.72;;;18.50;99.90;;;;;;5007292;28;25083;-76
2022/06/25 01:22:49;;;;;;;7.60;5.50;;;18.50;99.90;;;;;;5006102;28;25071;-74
2022/06/25 01:25:16;;;;;;;9.43;5.45;;;18.50;99.90;;;;;;5004612;28;25113;-74
2022/06/25 01:27:42;;;;;;;6.20;5.40;;;18.50;99.90;;;;;;5007907;28;25061;-74
2022/06/25 01:30:09;;;;;;;8.73;6.38;;;18.40;99.90;;;;;;5021456;28;25076;-75
2022/06/25 01:32:35;;;;;;;10.52;6.45;;;18.40;99.90;;;;;;5031336;28;25117;-75
2022/06/25 01:35:01;;;;;;;8.57;5.85;;;18.30;99.90;;;;;;5021671;28;25141;-75
2022/06/25 01:37:27;;;;;;;10.18;6.25;;;18.30;99.90;;;;;;5011021;28;25074;-74
2022/06/25 01:39:56;;;;;;;8.23;6.97;;;18.20;99.90;;;;;;5008513;28;25082;-74
2022/06/25 01:45:08;;;;;;;7.95;5.68;;;18.20;99.90;;;;;;5004232;28;25080;-73
2022/06/25 01:47:34;;;;;;;8.48;5.55;;;18.30;99.90;;;;;;5000857;28;25079;-75
2022/06/25 01:49:59;;;;;;;10.15;5.68;;;18.30;99.90;;;;;;4997468;28;25079;-74
2022/06/25 01:52:25;;;;;;;11.68;5.95;;;18.30;99.90;;;;;;5003673;28;25128;-74
2022/06/25 01:54:51;;;;;;;7.55;5.18;;;18.20;99.90;;;;;;4998994;28;25076;-75
2022/06/25 01:57:17;;;;;;;9.05;5.35;;;18.30;99.90;;;;;;5006597;28;25059;-75
2022/06/25 01:59:45;;;;;;;6.93;5.03;;;18.30;99.90;;;;;;5017795;28;25126;-75
2022/06/25 02:02:10;;;;;;;7.72;5.35;;;18.30;99.90;;;;;;5008071;28;25149;-75
2022/06/25 02:04:36;;;;;;;7.28;5.20;;;18.20;99.90;;;;;;5011310;28;25053;-74
2022/06/25 02:07:02;;;;;;;8.85;4.38;;;18.10;99.90;;;;;;5008631;28;25152;-76
2022/06/25 02:09:27;;;;;;;13.38;5.90;;;18.20;99.90;;;;;;5007949;28;25064;-75
2022/06/25 02:11:53;;;;;;;10.55;5.95;;;18.20;99.90;;;;;;5001382;28;25111;-75
2022/06/25 02:14:19;;;;;;;7.15;5.35;;;18.10;99.90;;;;;;5001901;28;25069;-74
2022/06/25 02:16:45;;;;;;;7.07;5.30;;;18.10;99.90;;;;;;5002369;28;25097;-75
2022/06/25 02:19:10;;;;;;;9.48;5.90;;;18.00;99.90;;;;;;5000127;28;25051;-74
2022/06/25 02:21:36;;;;;;;10.75;5.10;;;18.10;99.90;;;;;;4999519;28;25062;-73
2022/06/25 02:24:02;;;;;;;9.85;5.68;;;18.10;99.90;;;;;;5004173;28;25053;-75
2022/06/25 02:26:27;;;;;;;8.93;5.82;;;18.10;99.90;;;;;;5000380;28;25146;-73
2022/06/25 02:28:53;;;;;;;11.13;5.85;;;18.00;99.90;;;;;;4996760;28;25114;-75
2022/06/25 02:31:19;;;;;;;6.97;5.13;;;18.00;99.90;;;;;;5001335;28;25053;-75
2022/06/25 02:33:44;;;;;;;11.57;5.43;;;18.00;99.90;;;;;;5003392;28;25063;-76
2022/06/25 02:36:10;;;;;;;7.45;5.20;;;18.00;99.90;;;;;;5017110;28;25056;-74
2022/06/25 02:38:35;;;;;;;10.07;5.53;;;18.00;99.90;;;;;;5016467;28;25061;-74
2022/06/25 02:41:01;;;;;;;6.32;4.55;;;18.00;99.90;;;;;;5009826;28;25161;-74
2022/06/25 02:43:27;;;;;;;10.65;6.28;;;18.00;99.90;;;;;;5008200;28;25108;-74
2022/06/25 02:45:53;;;;;;;8.82;5.65;;;18.00;99.90;;;;;;5005981;28;25091;-75
2022/06/25 02:48:19;;;;;;;12.68;6.00;;;17.90;99.90;;;;;;5004233;28;25111;-75
2022/06/25 02:50:44;;;;;;;7.07;5.35;;;17.90;99.90;;;;;;5007429;28;25068;-75
2022/06/25 02:53:10;;;;;;;7.65;5.97;;;17.90;99.90;;;;;;5002299;28;25077;-76
2022/06/25 03:01:04;;;;;;;12.85;6.15;;;17.80;99.90;;;;;;4999030;28;25061;-75
2022/06/25 03:03:30;;;;;;;10.65;4.60;;;17.90;99.90;;;;;;5004954;28;25052;-76
2022/06/25 03:05:56;;;;;;;6.57;5.00;;;17.90;99.90;;;;;;5020805;28;25066;-75
2022/06/25 03:08:22;;;;;;;11.07;4.57;;;17.90;99.90;;;;;;5022221;28;25076;-74
2022/06/25 03:10:48;;;;;;;9.20;5.25;;;17.80;99.90;;;;;;5024254;28;25101;-73
2022/06/25 03:13:13;;;;;;;11.05;5.53;;;17.90;99.90;;;;;;5025627;28;25120;-75
2022/06/25 03:15:40;;;;;;;8.40;5.35;;;17.80;99.90;;;;;;5004870;28;25149;-74
2022/06/25 03:18:06;;;;;;;10.50;4.90;;;17.90;99.90;;;;;;5002122;28;25070;-76
2022/06/25 03:20:32;;;;;;;10.70;5.13;;;18.00;99.90;;;;;;5013600;28;25134;-75
2022/06/25 03:22:58;;;;;;;7.40;4.72;;;18.00;99.90;;;;;;5015687;28;25073;-74
2022/06/25 03:25:24;;;;;;;7.63;4.95;;;18.10;99.90;;;;;;5010234;28;25072;-75
2022/06/25 03:27:51;;;;;;;8.20;4.43;;;18.10;99.90;;;;;;5019688;28;25113;-75
2022/06/25 03:30:17;;;;;;;9.68;4.40;;;18.10;99.90;;;;;;5023768;28;25071;-73
2022/06/25 03:32:42;;;;;;;5.00;4.50;;;18.10;99.90;;;;;;5011104;28;25065;-75
2022/06/25 03:35:08;;;;;;;7.97;4.90;;;18.10;99.90;;;;;;5028045;28;25079;-75
2022/06/25 03:37:34;;;;;;;7.22;4.60;;;18.20;99.90;;;;;;5027391;28;25055;-74
2022/06/25 03:40:00;;;;;;;11.40;5.03;;;18.10;99.90;;;;;;5020852;28;25062;-75
2022/06/25 03:42:26;;;;;;;8.07;4.50;;;18.10;99.90;;;;;;5022352;28;25042;-74
2022/06/25 03:44:51;;;;;;;6.05;3.97;;;18.10;99.90;;;;;;5027914;28;25117;-73
2022/06/25 03:47:17;;;;;;;7.95;4.20;;;18.10;99.90;;;;;;5010930;28;25078;-76
2022/06/25 03:49:42;;;;;;;13.95;4.53;;;18.10;99.90;;;;;;5007877;28;26624;-76
2022/06/25 03:52:08;;;;;;;10.13;4.25;;;18.00;99.90;;;;;;5012353;28;25143;-75
2022/06/25 03:54:35;;;;;;;8.85;4.30;;;18.00;99.90;;;;;;5009458;28;25061;-73
2022/06/25 03:57:02;;;;;;;5.55;3.53;;;18.00;99.90;;;;;;5008807;28;25066;-75
2022/06/25 03:59:28;;;;;;;5.88;3.33;;;18.00;99.90;;;;;;5003772;28;25142;-75
2022/06/25 04:01:55;;;;;;;5.22;3.63;;;17.90;99.90;;;;;;5006813;28;25166;-76
2022/06/25 04:04:21;;;;;;;7.05;3.50;;;17.90;99.90;;;;;;5009016;28;25174;-75
2022/06/25 04:06:46;;;;;;;4.97;3.00;;;17.90;99.90;;;;;;5012637;28;25089;-75
2022/06/25 04:09:12;;;;;;;7.95;3.38;;;17.90;99.90;;;;;;5017324;28;25124;-74
2022/06/25 04:11:38;;;;;;;5.53;3.75;;;18.00;99.90;;;;;;5011143;28;25054;-74
2022/06/25 04:14:04;;;;;;;5.55;3.28;;;18.10;99.90;;;;;;5010809;28;25061;-74
2022/06/25 04:16:30;;;;;;;6.97;3.38;;;18.00;99.90;;;;;;5010203;28;25055;-75
2022/06/25 04:18:56;;;;;;;7.20;2.90;;;18.00;99.90;;;;;;5003635;28;25062;-73
2022/06/25 04:21:21;;;;;;;4.00;2.83;;;18.00;99.90;;;;;;5013987;28;25136;-73
2022/06/25 04:23:47;;;;;;;6.82;3.63;;;17.90;99.90;;;;;;5014362;28;25073;-74
2022/06/25 04:26:13;;;;;;;7.78;3.45;;;17.80;99.90;;;;;;4995917;28;25058;-71
2022/06/25 04:31:24;;;;;;;4.78;3.22;;;17.90;99.90;;;;;;4997366;28;25097;-73
2022/06/25 04:33:50;;;;;;;3.03;2.60;;;17.80;99.90;;;;;;5006087;28;25074;-75
2022/06/25 04:36:15;;;;;;;7.32;2.88;;;17.90;99.90;;;;;;5003274;28;25064;-73
2022/06/25 04:38:41;;;;;;;4.90;3.13;;;18.00;99.90;;;;;;5014370;28;25045;-73
2022/06/25 04:41:06;;;;;;;6.78;2.90;;;18.00;99.90;;;;;;5001465;28;25089;-73
2022/06/25 04:43:32;;;;;;;11.60;3.38;;;18.00;99.90;;;;;;5000723;28;25166;-74
2022/06/25 04:45:58;;;;;;;5.32;3.17;;;18.10;99.90;;;;;;4997386;28;25148;-74
2022/06/25 04:48:24;;;;;;;7.05;3.38;;;18.00;99.90;;;;;;4995452;28;25168;-74
2022/06/25 04:50:49;;;;;;;4.88;2.88;;;18.00;99.90;;;;;;5003431;28;25075;-75
2022/06/25 04:53:15;;;;;;;6.35;2.75;;;18.00;99.90;;;;;;5000730;28;25058;-74
2022/06/25 04:55:42;;;;;;;6.30;3.00;;;18.00;99.90;;;;;;5007389;28;25155;-73
2022/06/25 04:58:08;;;;;;;5.97;2.38;;;18.00;99.90;;;;;;4997308;28;25166;-75
2022/06/25 05:00:33;;;;;;;6.63;3.55;;;18.00;99.90;;;;;;4998819;28;25101;-74
2022/06/25 05:02:59;;;;;;;7.10;2.78;;;18.00;99.90;;;;;;4999428;28;25053;-73
2022/06/25 05:05:25;;;;;;;4.82;3.53;;;17.90;99.90;;;;;;5006402;28;25139;-74
2022/06/25 05:07:50;;;;;;;5.25;3.22;;;17.90;99.90;;;;;;5017441;28;25064;-76
2022/06/25 05:10:16;;;;;;;5.68;3.20;;;17.90;99.90;;;;;;5006256;28;25154;-76
2022/06/25 05:15:26;;;;;;;5.15;3.08;;;18.10;99.90;;;;;;5023003;28;25055;-76
2022/06/25 05:17:51;;;;;;;7.55;3.65;;;18.10;99.90;;;;;;5018932;28;25076;-73
2022/06/25 05:20:17;;;;;;;4.38;3.35;;;18.20;99.90;;;;;;5007182;28;25075;-73
2022/06/25 05:22:43;;;;;;;5.63;3.00;;;18.30;99.90;;;;;;5012337;28;25066;-75
2022/06/25 05:25:09;;;;;;;5.05;3.25;;;18.30;99.90;;;;;;5020456;28;25134;-74
2022/06/25 05:27:34;;;;;;;11.95;3.03;;;18.30;99.90;;;;;;5015428;28;25053;-75
2022/06/25 05:30:00;;;;;;;7.03;3.50;;;18.40;99.90;;;;;;5012102;28;25101;-74
2022/06/25 05:32:26;;;;;;;9.20;3.58;;;18.60;99.90;;;;;;5013107;28;25076;-73
2022/06/25 05:34:51;;;;;;;5.28;3.20;;;18.60;99.90;;;;;;5012143;28;25080;-74
2022/06/25 05:37:18;;;;;;;8.02;3.30;;;18.60;99.90;;;;;;5006547;28;25136;-74
2022/06/25 05:39:43;;;;;;;9.10;3.97;;;18.70;99.90;;;;;;5001836;28;25091;-77
2022/06/25 05:42:09;;;;;;;8.27;3.47;;;18.80;99.90;;;;;;5002221;28;25089;-75
2022/06/25 05:44:34;;;;;;;9.32;3.90;;;18.90;99.90;;;;;;5001769;28;25072;-74
2022/06/25 05:47:00;;;;;;;6.40;3.45;;;18.80;99.90;;;;;;5006764;28;25069;-75
2022/06/25 05:49:26;;;;;;;8.80;3.67;;;18.90;99.90;;;;;;5003436;28;25130;-73
2022/06/25 05:51:51;;;;;;;8.30;3.75;;;19.00;99.90;;;;;;5002141;28;25091;-73
2022/06/25 05:54:17;;;;;;;7.07;4.28;;;19.10;99.90;;;;;;5011157;28;25107;-74
2022/06/25 05:56:43;;;;;;;8.10;3.70;;;19.20;99.90;;;;;;5002938;28;25063;-75
2022/06/25 05:59:08;;;;;;;8.68;4.03;;;19.40;99.90;;;;;;5003097;28;25101;-74
2022/06/25 06:01:34;;;;;;;4.28;3.40;;;19.40;99.90;;;;;;5003527;28;25058;-75
2022/06/25 06:04:00;;;;;;;11.32;4.25;;;19.30;99.90;;;;;;5002544;28;25141;-73
2022/06/25 06:06:25;;;;;;;6.32;3.70;;;19.40;99.90;;;;;;5009448;28;25134;-75
2022/06/25 06:08:51;;;;;;;6.05;3.40;;;19.20;99.90;;;;;;5003960;28;25149;-74
2022/06/25 06:11:17;;;;;;;8.05;3.78;;;19.20;99.90;;;;;;5002074;28;25117;-71
2022/06/25 06:13:42;;;;;;;7.65;4.03;;;19.20;99.90;;;;;;5001086;28;25060;-73
2022/06/25 06:16:08;;;;;;;9.15;4.05;;;19.40;99.90;;;;;;4998645;28;25068;-72
2022/06/25 06:18:33;;;;;;;6.30;4.20;;;19.60;99.90;;;;;;5026958;28;25123;-72
2022/06/25 06:20:59;;;;;;;7.40;4.20;;;19.80;99.90;;;;;;5003948;28;25079;-72
2022/06/25 06:23:25;;;;;;;5.75;3.60;;;19.90;99.90;;;;;;5013945;28;25056;-72
2022/06/25 06:25:50;;;;;;;7.80;4.20;;;20.00;99.90;;;;;;5004392;28;25086;-73
2022/06/25 06:28:16;;;;;;;7.57;3.90;;;20.20;99.90;;;;;;4997918;28;25072;-72
2022/06/25 06:30:42;;;;;;;8.85;4.20;;;20.30;99.90;;;;;;4993075;28;25084;-72
2022/06/25 06:33:08;;;;;;;8.82;3.97;;;20.50;99.90;;;;;;5006251;28;25055;-73
2022/06/25 06:35:34;;;;;;;10.02;4.18;;;20.60;99.90;;;;;;4999316;28;25075;-73
2022/06/25 06:37:59;;;;;;;8.25;3.50;;;20.50;99.90;;;;;;5006163;28;25113;-72
2022/06/25 06:40:25;;;;;;;5.88;4.00;;;20.40;99.90;;;;;;5011224;28;25140;-71
2022/06/25 06:42:51;;;;;;;11.75;4.18;;;20.50;99.90;;;;;;5005420;28;25076;-72
2022/06/25 06:45:16;;;;;;;12.20;4.38;;;20.30;99.90;;;;;;5012728;28;25064;-71
2022/06/25 06:47:42;;;;;;;10.38;4.57;;;20.20;99.90;;;;;;5010815;28;25064;-73
2022/06/25 06:50:10;;;;;;;12.48;4.35;;;20.20;99.90;;;;;;5004896;23;25058;-65
2022/06/25 06:52:36;;;;;;;10.18;3.97;;;20.20;99.90;;;;;;4965023;28;25128;-65
2022/06/25 06:55:04;;;;;;;9.52;4.47;;;20.10;99.90;;;;;;4971465;28;25068;-63
2022/06/25 06:57:30;;;;;;;7.57;3.90;;;19.80;99.90;;;;;;4967030;28;25049;-64
2022/06/25 06:59:58;;;;;;;6.05;3.50;;;19.70;99.90;;;;;;4970930;28;25054;-65
2022/06/25 07:02:25;;;;;;;10.80;4.68;;;19.60;99.90;;;;;;4958068;28;25119;-63
2022/06/25 07:04:52;;;;;;;12.38;4.13;;;19.40;99.90;;;;;;4978972;22;25153;-74
2022/06/25 07:07:18;;;;;;;9.48;3.88;;;19.50;99.90;;;;;;4979024;28;25058;-73
2022/06/25 07:09:43;;;;;;;9.38;3.90;;;19.50;99.90;;;;;;4970280;28;25058;-74
2022/06/25 07:12:09;;;;;;;11.95;4.28;;;19.40;99.90;;;;;;4975027;28;25101;-73
2022/06/25 07:14:35;;;;;;;7.95;4.32;;;19.50;99.90;;;;;;4972955;28;25093;-73
2022/06/25 07:17:01;;;;;;;8.30;4.07;;;19.40;99.90;;;;;;4964649;28;25119;-73
2022/06/25 07:19:26;;;;;;;13.52;5.75;;;19.20;99.90;;;;;;4975300;28;25111;-71
2022/06/25 07:21:54;;;;;;;8.02;4.22;;;19.30;99.90;;;;;;4967802;28;25063;-73
2022/06/25 07:24:20;;;;;;;13.25;5.03;;;19.20;99.90;;;;;;4967117;28;25077;-71
2022/06/25 07:26:46;;;;;;;10.70;5.13;;;19.30;99.90;;;;;;4969979;28;25087;-73
2022/06/25 07:29:12;;;;;;;10.95;5.38;;;19.30;99.90;;;;;;4968317;28;25091;-73
2022/06/25 07:31:38;;;;;;;14.02;5.35;;;19.40;99.90;;;;;;4970021;28;25181;-73
2022/06/25 07:34:03;;;;;;;15.15;5.95;;;19.50;99.90;;;;;;4970506;28;25125;-73
2022/06/25 07:36:29;;;;;;;12.32;5.22;;;19.60;99.90;;;;;;4971150;28;25070;-74
2022/06/25 07:38:55;;;;;;;14.48;6.15;;;19.60;99.90;;;;;;4975148;28;25070;-72
2022/06/25 07:41:21;;;;;;;10.70;4.75;;;19.60;99.90;;;;;;4962618;28;25066;-75
2022/06/25 07:43:47;;;;;;;13.05;5.10;;;19.70;99.90;;;;;;4968050;28;25064;-73
2022/06/25 07:46:12;;;;;;;10.55;5.05;;;19.70;99.90;;;;;;4965760;28;25148;-73
2022/06/25 07:48:38;;;;;;;7.63;4.22;;;19.60;99.90;;;;;;4962850;28;25087;-77
2022/06/25 07:53:48;;;;;;;11.68;5.10;;;19.50;99.90;;;;;;4973832;28;25057;-72
2022/06/25 07:56:14;;;;;;;13.65;5.95;;;19.40;99.90;;;;;;4990306;28;25061;-77
2022/06/25 07:58:40;;;;;;;12.43;6.55;;;19.40;99.90;;;;;;4994938;28;25063;-76
2022/06/25 08:01:06;;;;;;;15.52;7.32;;;19.50;99.90;;;;;;4986054;28;25053;-73
2022/06/25 08:03:31;;;;;;;15.25;7.80;;;19.50;99.90;;;;;;4978079;28;25062;-76
2022/06/25 08:05:58;;;;;;;18.08;7.78;;;19.60;99.90;;;;;;4973985;28;25108;-74
2022/06/25 08:08:24;;;;;;;16.52;7.97;;;19.50;99.90;;;;;;4973963;28;25060;-73
2022/06/25 08:10:51;;;;;;;20.35;10.15;;;19.60;99.90;;;;;;4968149;28;25068;-79
2022/06/25 08:13:17;;;;;;;20.98;9.48;;;19.50;99.90;;;;;;4971415;28;25109;-73
2022/06/25 08:15:42;;;;;;;21.90;9.20;;;19.60;99.90;;;;;;4968507;28;25161;-74
2022/06/25 08:18:08;;;;;;;21.13;8.68;;;19.70;99.90;;;;;;4973055;28;25056;-73
2022/06/25 08:20:34;;;;;;;11.05;4.60;;;19.80;99.90;;;;;;4971274;28;25146;-75
2022/06/25 08:22:59;;;;;;;12.73;4.40;;;19.90;99.90;;;;;;4969317;28;25073;-75
2022/06/25 08:25:25;;;;;;;8.93;3.30;;;20.10;99.90;;;;;;4969561;28;25064;-74
2022/06/25 08:27:53;;;;;;;6.47;2.50;;;20.20;99.90;;;;;;4975869;28;25072;-77
2022/06/25 08:30:23;;;;;;;9.18;3.17;;;20.40;99.90;;;;;;4966876;28;25058;-77
2022/06/25 08:32:50;;;;;;;11.07;2.97;;;20.30;99.90;;;;;;4972072;28;25110;-77
2022/06/25 08:35:16;;;;;;;7.65;2.90;;;20.30;99.90;;;;;;4977516;28;25104;-74
2022/06/25 08:37:46;;;;;;;8.02;2.78;;;20.50;99.90;;;;;;4967409;28;25089;-74
2022/06/25 08:40:13;;;;;;;4.85;2.50;;;20.50;99.90;;;;;;4966256;28;25112;-73
2022/06/25 08:42:39;;;;;;;8.23;2.80;;;20.60;99.90;;;;;;4972108;28;25055;-71
2022/06/25 08:45:06;;;;;;;6.60;3.97;;;20.60;99.90;;;;;;4969894;28;25083;-74
2022/06/25 08:47:31;;;;;;;6.63;4.38;;;20.70;99.90;;;;;;4968376;28;25068;-74
2022/06/25 08:49:58;;;;;;;6.38;5.10;;;20.70;99.90;;;;;;4978034;28;25067;-75
2022/06/25 08:52:27;;;;;;;7.47;5.38;;;20.50;99.90;;;;;;4972712;28;25102;-74
2022/06/25 08:54:54;;;;;;;7.55;5.93;;;20.50;99.90;;;;;;4982534;28;25101;-73
2022/06/25 08:57:21;;;;;;;11.82;6.65;;;20.60;99.90;;;;;;4967927;28;25056;-74
2022/06/25 08:59:46;;;;;;;6.72;5.68;;;20.60;99.90;;;;;;4993614;28;25167;-74
2022/06/25 09:02:12;;;;;;;6.63;5.70;;;20.60;99.90;;;;;;4960720;28;25169;-74
2022/06/25 09:04:37;;;;;;;8.93;4.70;;;20.50;99.90;;;;;;4974565;28;25095;-77
2022/06/25 09:07:21;;;;;;;7.75;5.00;;;20.40;99.90;;;;;;4971682;28;25155;-74
2022/06/25 09:09:49;;;;;;;8.30;4.80;;;20.50;99.90;;;;;;4987181;28;25045;-74
2022/06/25 09:12:15;;;;;;;9.13;5.05;;;20.20;99.90;;;;;;4969722;28;25144;-72
2022/06/25 09:14:41;;;;;;;8.20;4.07;;;20.10;99.90;;;;;;4968685;28;25115;-75
2022/06/25 09:17:12;;;;;;;9.38;4.55;;;20.10;99.90;;;;;;4973479;28;25103;-73
2022/06/25 09:19:47;;;;;;;11.10;4.68;;;19.90;99.90;;;;;;4969457;28;25165;-74
2022/06/25 09:22:15;;;;;;;9.07;4.30;;;19.80;99.90;;;;;;4961314;28;25073;-75
2022/06/25 09:24:49;;;;;;;10.90;6.53;;;19.60;99.90;;;;;;4966142;28;25064;-74
2022/06/25 09:27:35;;;;;;;15.88;10.48;;;19.50;99.90;;;;;;4965859;28;25055;-73
2022/06/25 09:30:12;;;;;;;15.70;10.88;;;19.20;99.90;;;;;;4954985;28;25049;-75
2022/06/25 09:32:48;;;;;;;11.65;8.65;;;19.20;99.90;;;;;;4965960;28;25064;-72
2022/06/25 09:35:35;;;;;;;7.55;6.28;;;19.40;99.90;;;;;;4967799;28;25071;-72
2022/06/25 09:38:07;;;;;;;9.18;4.75;;;19.50;99.90;;;;;;4962416;28;25131;-72
2022/06/25 09:40:34;;;;;;;5.93;4.25;;;19.60;99.90;;;;;;4963640;28;25067;-74
2022/06/25 09:43:11;;;;;;;6.05;3.53;;;19.60;99.90;;;;;;4969224;28;25072;-72
2022/06/25 09:45:37;;;;;;;6.10;3.78;;;19.50;99.90;;;;;;4965098;28;25075;-75
2022/06/25 09:48:07;;;;;;;4.15;3.10;;;19.50;99.90;;;;;;4970609;28;25084;-75
2022/06/25 09:50:32;;;;;;;4.20;3.28;;;19.50;99.90;;;;;;4971088;28;25147;-72
2022/06/25 09:53:02;;;;;;;3.03;2.55;;;19.90;99.90;;;;;;4972803;28;25151;-72
2022/06/25 09:55:30;;;;;;;4.22;2.20;;;20.10;99.90;;;;;;4984278;28;25133;-73
2022/06/25 09:57:59;;;;;;;2.28;1.70;;;20.30;99.90;;;;;;4977306;28;25065;-74
2022/06/25 10:00:25;;;;;;;3.75;2.00;;;20.50;99.90;;;;;;4967395;28;25085;-75
2022/06/25 10:02:51;;;;;;;5.57;2.40;;;20.30;99.90;;;;;;4974259;28;25083;-76
2022/06/25 10:05:18;;;;;;;3.35;2.28;;;20.50;99.90;;;;;;4968196;28;25098;-72
2022/06/25 10:08:01;;;;;;;9.25;2.97;;;20.40;99.90;;;;;;4984225;28;25091;-73
2022/06/25 10:10:32;;;;;;;3.50;2.63;;;20.30;99.90;;;;;;4968153;28;25098;-76
2022/06/25 10:12:58;;;;;;;2.95;2.15;;;20.00;99.90;;;;;;4989838;28;25102;-74
2022/06/25 10:15:23;;;;;;;5.60;2.35;;;20.00;99.90;;;;;;4973353;28;25105;-73
2022/06/25 10:17:53;;;;;;;3.80;2.40;;;19.90;99.90;;;;;;4989852;28;25054;-76
2022/06/25 10:20:20;;;;;;;5.13;2.50;;;20.10;99.90;;;;;;4969992;28;25152;-73
2022/06/25 10:22:48;;;;;;;3.92;2.08;;;20.20;99.90;;;;;;4970517;28;25106;-74
2022/06/25 10:25:19;;;;;;;8.68;3.00;;;20.50;99.90;;;;;;4967690;28;25050;-75
2022/06/25 10:27:47;;;;;;;5.80;3.00;;;20.50;99.90;;;;;;4967290;28;25085;-75
2022/06/25 10:30:15;;;;;;;6.07;3.13;;;20.70;99.90;;;;;;4977482;28;25110;-73
2022/06/25 10:32:49;;;;;;;5.25;3.28;;;20.50;99.90;;;;;;4973558;28;25104;-72
2022/06/25 10:35:35;;;;;;;4.88;2.75;;;20.60;99.90;;;;;;4975799;28;25108;-73
2022/06/25 10:38:03;;;;;;;6.00;2.80;;;20.90;99.90;;;;;;4970418;28;25085;-75
2022/06/25 10:40:33;;;;;;;8.10;3.83;;;20.90;99.90;;;;;;4982310;28;25059;-76
2022/06/25 10:43:22;;;;;;;3.22;2.92;;;21.50;99.90;;;;;;4982997;28;25082;-75
2022/06/25 10:45:48;;;;;;;7.07;3.33;;;21.80;99.90;;;;;;4983631;28;25125;-73
2022/06/25 10:48:13;;;;;;;4.30;2.97;;;22.10;99.90;;;;;;4981600;28;25050;-74
2022/06/25 10:50:46;;;;;;;6.45;3.72;;;22.50;99.90;;;;;;4975169;28;25117;-74
2022/06/25 10:53:11;;;;;;;5.65;3.55;;;22.70;99.90;;;;;;4997269;28;25052;-73
2022/06/25 10:55:37;;;;;;;7.28;3.35;;;22.60;99.90;;;;;;4983547;28;25056;-75
2022/06/25 10:58:21;;;;;;;8.20;3.95;;;22.30;99.90;;;;;;4995831;28;25079;-73
2022/06/25 11:00:49;;;;;;;6.05;4.05;;;22.20;99.90;;;;;;4991313;28;25117;-75
2022/06/25 11:03:16;;;;;;;6.07;3.45;;;22.70;99.90;;;;;;4993581;28;25119;-71
2022/06/25 11:05:43;;;;;;;5.63;3.85;;;23.00;99.90;;;;;;4984874;28;25073;-74
2022/06/25 11:08:09;;;;;;;5.00;4.15;;;23.00;99.90;;;;;;4980921;28;25133;-74
2022/06/25 11:10:39;;;;;;;4.22;3.50;;;22.40;99.90;;;;;;4977399;28;25069;-75
2022/06/25 11:13:05;;;;;;;5.10;3.50;;;22.10;99.90;;;;;;4982322;28;25101;-72
2022/06/25 11:15:39;;;;;;;5.05;3.42;;;22.00;99.90;;;;;;4975728;28;25122;-73
2022/06/25 11:18:13;;;;;;;10.88;4.03;;;22.00;99.90;;;;;;4984833;28;25116;-73
2022/06/25 11:20:40;;;;;;;5.70;3.25;;;22.10;99.90;;;;;;4971480;28;25057;-73
2022/06/25 11:23:09;;;;;;;5.68;3.33;;;22.60;99.90;;;;;;4978141;28;25161;-74
2022/06/25 11:28:48;;;;;;;5.68;3.58;;;22.70;99.90;;;;;;4977885;28;25088;-73
2022/06/25 11:31:15;;;;;;;4.78;3.67;;;23.00;99.90;;;;;;4969177;28;25049;-73
2022/06/25 11:33:41;;;;;;;5.03;3.75;;;22.60;99.90;;;;;;4976749;28;25058;-74
2022/06/25 11:36:11;;;;;;;4.13;3.33;;;22.40;99.90;;;;;;4973691;28;25156;-72
2022/06/25 11:38:38;;;;;;;4.15;3.30;;;22.60;99.90;;;;;;4971627;28;25079;-72
2022/06/25 11:41:04;;;;;;;6.50;3.42;;;22.50;99.90;;;;;;4968119;28;25100;-72
2022/06/25 11:43:30;;;;;;;6.03;3.00;;;22.60;99.90;;;;;;4968457;28;25095;-77
2022/06/25 11:45:57;;;;;;;3.13;2.83;;;22.80;99.90;;;;;;4983551;28;25054;-72
2022/06/25 11:48:27;;;;;;;4.63;2.40;;;23.20;99.90;;;;;;4973379;28;25119;-74
2022/06/25 11:50:55;;;;;;;4.63;2.30;;;23.80;99.90;;;;;;4974248;28;25123;-73
2022/06/25 11:53:20;;;;;;;4.60;2.30;;;24.20;99.90;;;;;;4978500;28;25060;-73
2022/06/25 11:55:59;;;;;;;4.38;2.55;;;24.40;99.90;;;;;;4970019;28;25080;-75
2022/06/25 11:58:27;;;;;;;5.10;2.50;;;24.90;99.90;;;;;;4970149;28;25133;-73
2022/06/25 12:01:00;;;;;;;3.30;2.20;;;23.90;99.90;;;;;;4975717;28;25072;-72
2022/06/25 12:03:28;;;;;;;4.22;2.10;;;23.80;99.90;;;;;;4976975;28;25108;-73
2022/06/25 12:05:58;;;;;;;3.70;1.90;;;23.60;99.90;;;;;;4972602;28;25089;-72
2022/06/25 12:08:25;;;;;;;3.58;2.53;;;23.40;99.90;;;;;;4977425;28;25112;-74
2022/06/25 12:10:53;;;;;;;3.72;2.03;;;23.40;99.90;;;;;;4975600;28;25095;-73
2022/06/25 12:13:19;;;;;;;4.00;2.30;;;23.60;99.90;;;;;;4971654;28;25156;-71
2022/06/25 12:15:45;;;;;;;3.58;1.90;;;23.10;99.90;;;;;;4967023;28;25152;-72
2022/06/25 12:18:11;;;;;;;5.45;2.40;;;23.10;99.90;;;;;;4961692;28;25138;-71
2022/06/25 12:20:56;;;;;;;4.32;2.35;;;23.70;99.90;;;;;;4972066;28;25102;-72
2022/06/25 12:23:22;;;;;;;4.97;2.50;;;23.90;99.90;;;;;;4977512;28;25103;-74
2022/06/25 12:25:48;;;;;;;4.57;2.42;;;24.00;99.90;;;;;;4980952;28;25087;-72
2022/06/25 12:28:15;;;;;;;6.43;2.30;;;24.10;99.90;;;;;;4979197;28;25096;-73
2022/06/25 12:30:41;;;;;;;5.07;2.20;;;24.00;99.90;;;;;;4999109;28;25060;-73
2022/06/25 12:33:13;;;;;;;3.13;2.15;;;24.30;99.90;;;;;;4983523;28;25070;-75
2022/06/25 12:35:44;;;;;;;7.78;2.03;;;24.50;99.90;;;;;;4973300;28;25063;-74
2022/06/25 12:38:14;;;;;;;7.60;2.28;;;24.30;99.90;;;;;;4981354;28;25077;-74
2022/06/25 12:40:45;;;;;;;3.42;2.13;;;24.50;99.90;;;;;;4985160;28;25076;-71
2022/06/25 12:43:12;;;;;;;2.40;1.95;;;24.40;99.90;;;;;;4979561;28;25098;-71
2022/06/25 12:45:39;;;;;;;1.98;1.88;;;24.50;99.90;;;;;;4975583;28;25091;-72
2022/06/25 12:48:07;;;;;;;3.38;2.67;;;24.20;99.90;;;;;;4978656;28;25064;-72
2022/06/25 12:50:36;;;;;;;5.78;2.22;;;24.40;99.90;;;;;;4981316;28;25071;-71
2022/06/25 12:53:11;;;;;;;3.03;2.67;;;24.30;99.90;;;;;;4990045;28;25098;-72
2022/06/25 12:55:38;;;;;;;5.72;2.67;;;24.40;99.90;;;;;;4985634;28;25073;-75
2022/06/25 12:58:08;;;;;;;3.00;1.55;;;24.30;99.90;;;;;;5003024;28;25100;-75
2022/06/25 13:00:37;;;;;;;4.68;2.05;;;24.40;99.90;;;;;;4988050;28;25052;-75
2022/06/25 13:03:05;;;;;;;2.20;1.88;;;24.50;99.90;;;;;;4996554;28;25105;-74
2022/06/25 13:05:31;;;;;;;4.53;2.25;;;24.40;99.90;;;;;;5001272;28;25074;-75